createdAt,value
2022-09-11T00:00:57.631Z,2.50
2022-09-11T00:03:24.607Z,3.08
2022-09-11T00:05:52.212Z,2.92
2022-09-11T00:08:21.336Z,3.25
2022-09-11T00:10:48.983Z,2.95
2022-09-11T00:13:22.367Z,2.72
2022-09-11T00:15:51.568Z,2.75
2022-09-11T00:18:23.496Z,2.72
2022-09-11T00:20:53.389Z,2.70
2022-09-11T00:23:22.868Z,2.70
2022-09-11T00:25:50.331Z,2.63
2022-09-11T00:28:24.186Z,3.15
2022-09-11T00:31:03.402Z,2.60
2022-09-11T00:33:30.887Z,2.90
2022-09-11T00:36:00.637Z,3.10
2022-09-11T00:38:30.163Z,2.45
2022-09-11T00:40:59.840Z,2.90
2022-09-11T00:43:29.162Z,2.53
2022-09-11T00:46:04.606Z,2.47
2022-09-11T00:48:36.316Z,2.72
2022-09-11T00:51:04.519Z,2.50
2022-09-11T00:53:36.372Z,2.88
2022-09-11T00:56:07.058Z,2.55
2022-09-11T00:58:38.224Z,3.00
2022-09-11T01:01:05.473Z,2.60
2022-09-11T01:03:32.416Z,2.78
2022-09-11T01:06:00.734Z,3.15
2022-09-11T01:08:28.847Z,2.80
2022-09-11T01:11:05.175Z,2.70
2022-09-11T01:13:41.131Z,2.35
2022-09-11T01:16:29.709Z,2.60
2022-09-11T01:19:27.358Z,2.75
2022-09-11T01:22:16.057Z,2.83
2022-09-11T01:25:15.599Z,2.95
2022-09-11T01:27:50.768Z,2.90
2022-09-11T01:30:35.802Z,2.40
2022-09-11T01:33:06.191Z,2.80
2022-09-11T01:35:56.036Z,2.95
2022-09-11T01:39:00.519Z,2.42
2022-09-11T01:41:50.280Z,2.97
2022-09-11T01:44:26.346Z,2.97
2022-09-11T01:46:54.510Z,2.67
2022-09-11T01:49:36.949Z,2.38
2022-09-11T01:52:15.654Z,2.67
2022-09-11T01:54:47.313Z,2.47
2022-09-11T01:57:26.940Z,3.03
2022-09-11T01:59:59.497Z,2.33
2022-09-11T02:02:34.768Z,2.78
2022-09-11T02:05:10.789Z,3.03
2022-09-11T02:07:45.404Z,3.00
2022-09-11T02:10:26.744Z,2.90
2022-09-11T02:13:05.325Z,2.78
2022-09-11T02:15:42.762Z,2.60
2022-09-11T02:18:26.869Z,2.85
2022-09-11T02:20:54.134Z,2.83
2022-09-11T02:23:21.691Z,2.92
2022-09-11T02:25:52.596Z,3.17
2022-09-11T02:28:19.590Z,3.13
2022-09-11T02:30:46.653Z,3.42
2022-09-11T02:33:36.029Z,2.90
2022-09-11T02:36:22.325Z,2.90
2022-09-11T02:38:59.509Z,2.92
2022-09-11T02:41:51.887Z,3.15
2022-09-11T02:44:44.278Z,2.90
2022-09-11T02:47:31.191Z,3.17
2022-09-11T02:50:04.329Z,3.03
2022-09-11T02:52:43.547Z,2.97
2022-09-11T02:55:31.833Z,3.08
2022-09-11T02:58:15.946Z,2.90
2022-09-11T03:00:48.104Z,2.80
2022-09-11T03:03:15.826Z,3.10
2022-09-11T03:05:43.428Z,2.42
2022-09-11T03:08:11.738Z,3.00
2022-09-11T03:10:39.187Z,2.67
2022-09-11T03:13:09.591Z,2.95
2022-09-11T03:15:36.726Z,2.83
2022-09-11T03:18:05.145Z,3.05
2022-09-11T03:20:32.174Z,2.50
2022-09-11T03:22:59.123Z,2.63
2022-09-11T03:25:28.300Z,2.67
2022-09-11T03:27:57.127Z,2.83
2022-09-11T03:30:24.092Z,3.30
2022-09-11T03:32:51.167Z,2.60
2022-09-11T03:35:18.104Z,2.78
2022-09-11T03:37:47.062Z,2.72
2022-09-11T03:40:14.192Z,2.35
2022-09-11T03:42:42.155Z,2.85
2022-09-11T03:45:09.650Z,2.70
2022-09-11T03:47:37.283Z,3.05
2022-09-11T03:50:05.001Z,2.40
2022-09-11T03:52:32.808Z,2.22
2022-09-11T03:55:00.357Z,2.28
2022-09-11T03:57:27.560Z,2.42
2022-09-11T03:59:56.724Z,2.75
2022-09-11T04:02:23.796Z,2.20
2022-09-11T04:04:53.380Z,2.53
2022-09-11T04:07:20.436Z,2.45
2022-09-11T04:09:47.469Z,2.58
2022-09-11T04:12:14.500Z,2.67
2022-09-11T04:14:41.954Z,2.00
2022-09-11T04:17:09.599Z,2.38
2022-09-11T04:19:38.639Z,2.30
2022-09-11T04:22:05.579Z,2.67
2022-09-11T04:24:38.991Z,2.30
2022-09-11T04:27:06.133Z,2.33
2022-09-11T04:29:33.879Z,2.42
2022-09-11T04:32:01.480Z,2.42
2022-09-11T04:34:31.474Z,2.40
2022-09-11T04:36:58.599Z,2.20
2022-09-11T04:39:30.725Z,2.30
2022-09-11T04:41:57.712Z,2.47
2022-09-11T04:44:26.175Z,2.33
2022-09-11T04:46:55.588Z,2.17
2022-09-11T04:49:23.986Z,2.42
2022-09-11T04:51:50.928Z,2.10
2022-09-11T04:54:23.905Z,2.30
2022-09-11T04:56:51.933Z,1.88
2022-09-11T04:59:22.324Z,2.47
2022-09-11T05:01:55.268Z,2.42
2022-09-11T05:04:26.182Z,2.05
2022-09-11T05:06:54.974Z,2.00
2022-09-11T05:09:22.166Z,2.05
2022-09-11T05:11:49.352Z,2.03
2022-09-11T05:14:18.425Z,2.03
2022-09-11T05:16:47.925Z,1.80
2022-09-11T05:19:17.247Z,1.90
2022-09-11T05:21:45.789Z,1.98
2022-09-11T05:24:12.749Z,1.83
2022-09-11T05:26:41.091Z,2.00
2022-09-11T05:29:12.542Z,1.90
2022-09-11T05:31:45.925Z,1.73
2022-09-11T05:34:15.275Z,1.88
2022-09-11T05:36:42.308Z,1.90
2022-09-11T05:39:10.657Z,1.90
2022-09-11T05:41:39.168Z,2.13
2022-09-11T05:44:06.160Z,2.10
2022-09-11T05:46:34.246Z,2.22
2022-09-11T05:49:03.401Z,1.95
2022-09-11T05:51:30.327Z,2.13
2022-09-11T05:53:58.748Z,2.40
2022-09-11T05:56:26.760Z,1.88
2022-09-11T05:58:58.686Z,2.13
2022-09-11T06:01:33.957Z,2.00
2022-09-11T06:06:43.646Z,2.53
2022-09-11T06:09:10.682Z,2.58
2022-09-11T06:11:37.908Z,2.00
2022-09-11T06:14:04.997Z,2.35
2022-09-11T06:16:33.431Z,2.40
2022-09-11T06:19:08.643Z,2.33
2022-09-11T06:21:35.650Z,2.17
2022-09-11T06:24:11.772Z,2.40
2022-09-11T06:26:39.203Z,2.63
2022-09-11T06:29:07.611Z,2.53
2022-09-11T06:31:36.738Z,3.67
2022-09-11T06:34:04.184Z,3.00
2022-09-11T06:36:31.939Z,2.75
2022-09-11T06:39:02.984Z,3.13
2022-09-11T06:41:33.101Z,3.35
2022-09-11T06:44:07.263Z,3.20
2022-09-11T06:46:35.148Z,4.00
2022-09-11T06:49:02.264Z,3.25
2022-09-11T06:51:30.127Z,4.00
2022-09-11T06:54:02.021Z,3.58
2022-09-11T06:59:01.332Z,3.35
2022-09-11T07:01:30.075Z,3.40
2022-09-11T07:04:02.747Z,4.05
2022-09-11T07:06:32.366Z,6.35
2022-09-11T07:09:02.604Z,4.50
2022-09-11T07:11:47.768Z,3.90
2022-09-11T07:14:14.798Z,3.85
2022-09-11T07:16:44.430Z,4.47
2022-09-11T07:19:13.569Z,4.18
2022-09-11T07:21:41.784Z,4.70
2022-09-11T07:24:09.734Z,5.45
2022-09-11T07:26:40.698Z,4.80
2022-09-11T07:29:13.021Z,4.80
2022-09-11T07:31:42.701Z,4.45
2022-09-11T07:34:10.840Z,5.50
2022-09-11T07:36:37.821Z,5.45
2022-09-11T07:39:08.117Z,5.72
2022-09-11T07:41:39.189Z,5.85
2022-09-11T07:44:14.985Z,6.60
2022-09-11T07:46:42.057Z,6.47
2022-09-11T07:49:11.323Z,6.25
2022-09-11T07:51:41.377Z,6.60
2022-09-11T07:54:10.576Z,5.88
2022-09-11T07:56:39.142Z,5.03
2022-09-11T07:59:08.870Z,5.32
2022-09-11T08:01:38.375Z,4.57
2022-09-11T08:04:10.284Z,5.25
2022-09-11T08:06:38.594Z,5.03
2022-09-11T08:09:15.041Z,4.80
2022-09-11T08:11:48.813Z,4.63
2022-09-11T08:14:17.936Z,4.68
2022-09-11T08:16:48.360Z,5.30
2022-09-11T08:19:23.326Z,4.50
2022-09-11T08:21:56.093Z,4.72
2022-09-11T08:24:24.387Z,4.07
2022-09-11T08:26:57.100Z,4.88
2022-09-11T08:29:26.003Z,4.70
2022-09-11T08:31:53.546Z,3.78
2022-09-11T08:34:22.292Z,5.15
2022-09-11T08:36:51.975Z,4.03
2022-09-11T08:39:19.336Z,3.67
2022-09-11T08:42:02.178Z,3.40
2022-09-11T08:44:47.711Z,3.35
2022-09-11T08:47:33.582Z,3.60
2022-09-11T08:50:29.364Z,2.70
2022-09-11T08:53:01.356Z,2.60
2022-09-11T08:55:43.819Z,3.25
2022-09-11T08:58:21.199Z,3.63
2022-09-11T09:00:54.130Z,2.08
2022-09-11T09:03:36.410Z,2.08
2022-09-11T09:06:27.586Z,2.63
2022-09-11T09:09:22.985Z,2.30
2022-09-11T09:12:16.136Z,2.50
2022-09-11T09:15:05.925Z,2.80
2022-09-11T09:17:49.219Z,2.60
2022-09-11T09:20:23.112Z,2.08
2022-09-11T09:23:13.808Z,1.83
2022-09-11T09:25:42.777Z,2.50
2022-09-11T09:28:38.692Z,2.17
2022-09-11T09:31:10.959Z,2.30
2022-09-11T09:34:01.971Z,2.30
2022-09-11T09:36:36.379Z,3.42
2022-09-11T09:39:15.731Z,2.33
2022-09-11T09:42:19.595Z,2.70
2022-09-11T09:45:11.063Z,2.72
2022-09-11T09:47:43.796Z,3.30
2022-09-11T09:50:22.884Z,3.00
2022-09-11T09:52:50.708Z,2.45
2022-09-11T09:55:20.472Z,2.38
2022-09-11T09:57:47.595Z,2.80
2022-09-11T10:00:22.420Z,2.22
2022-09-11T10:02:54.715Z,2.10
2022-09-11T10:05:35.127Z,2.00
2022-09-11T10:08:05.179Z,2.30
2022-09-11T10:10:36.444Z,1.90
2022-09-11T10:13:25.447Z,1.85
2022-09-11T10:15:56.026Z,2.33
2022-09-11T10:18:29.452Z,1.98
2022-09-11T10:21:11.753Z,2.00
2022-09-11T10:24:01.361Z,2.10
2022-09-11T10:26:34.158Z,2.92
2022-09-11T10:29:07.827Z,2.13
2022-09-11T10:31:38.515Z,2.30
2022-09-11T10:34:06.100Z,2.03
2022-09-11T10:36:35.075Z,2.25
2022-09-11T10:39:02.714Z,1.90
2022-09-11T10:41:34.214Z,1.90
2022-09-11T10:44:11.668Z,1.70
2022-09-11T10:46:43.012Z,2.00
2022-09-11T10:49:22.809Z,2.20
2022-09-11T10:52:18.967Z,1.90
2022-09-11T10:57:34.607Z,1.65
2022-09-11T11:00:21.242Z,1.98
2022-09-11T11:03:12.430Z,2.00
2022-09-11T11:06:16.320Z,1.70
2022-09-11T11:09:01.840Z,1.80
2022-09-11T11:11:40.638Z,1.65
2022-09-11T11:14:48.611Z,1.75
2022-09-11T11:17:43.788Z,1.80
2022-09-11T11:20:44.695Z,1.90
2022-09-11T11:23:18.213Z,2.30
2022-09-11T11:25:51.078Z,1.73
2022-09-11T11:28:51.410Z,1.80
2022-09-11T11:31:44.142Z,1.70
2022-09-11T11:34:44.071Z,1.40
2022-09-11T11:37:19.693Z,2.00
2022-09-11T11:39:57.725Z,1.70
2022-09-11T11:42:31.499Z,2.00
2022-09-11T11:45:04.518Z,1.85
2022-09-11T11:47:42.465Z,1.70
2022-09-11T11:50:31.072Z,2.00
2022-09-11T11:53:10.131Z,1.50
2022-09-11T11:55:48.304Z,1.58
2022-09-11T11:58:18.035Z,1.80
2022-09-11T12:00:54.716Z,1.60
2022-09-11T12:03:38.670Z,1.90
2022-09-11T12:06:08.327Z,1.70
2022-09-11T12:08:48.287Z,1.30
2022-09-11T12:11:19.247Z,1.70
2022-09-11T12:13:48.344Z,1.50
2022-09-11T12:16:20.255Z,1.40
2022-09-11T12:19:06.541Z,1.40
2022-09-11T12:21:35.815Z,1.50
2022-09-11T12:24:02.738Z,1.60
2022-09-11T12:26:31.571Z,1.17
2022-09-11T12:29:14.337Z,1.30
2022-09-11T12:31:50.433Z,1.63
2022-09-11T12:34:45.989Z,1.48
2022-09-11T12:37:24.297Z,1.25
2022-09-11T12:39:58.369Z,1.40
2022-09-11T12:42:28.337Z,1.35
2022-09-11T12:44:59.754Z,1.50
2022-09-11T12:47:32.784Z,1.70
2022-09-11T12:50:15.010Z,1.40
2022-09-11T12:52:44.934Z,1.55
2022-09-11T12:55:40.748Z,1.40
2022-09-11T12:58:22.641Z,1.15
2022-09-11T13:01:00.155Z,1.27
2022-09-11T13:03:30.338Z,1.27
2022-09-11T13:06:17.548Z,1.05
2022-09-11T13:08:55.665Z,1.70
2022-09-11T13:11:46.469Z,1.48
2022-09-11T13:14:30.356Z,1.30
2022-09-11T13:17:03.071Z,1.20
2022-09-11T13:19:40.198Z,1.30
2022-09-11T13:22:28.614Z,1.02
2022-09-11T13:25:20.280Z,1.30
2022-09-11T13:27:49.974Z,1.20
2022-09-11T13:30:19.711Z,1.10
2022-09-11T13:32:49.449Z,1.10
2022-09-11T13:35:22.538Z,1.10
2022-09-11T13:38:10.042Z,1.10
2022-09-11T13:40:49.804Z,1.00
2022-09-11T13:43:21.825Z,1.20
2022-09-11T13:45:49.153Z,0.93
2022-09-11T13:48:23.358Z,1.30
2022-09-11T13:50:51.614Z,0.93
2022-09-11T13:53:20.005Z,0.88
2022-09-11T13:55:49.104Z,4.22
2022-09-11T13:58:29.500Z,2.20
2022-09-11T14:00:56.655Z,1.27
2022-09-11T14:03:31.521Z,1.30
2022-09-11T14:06:01.300Z,1.20
2022-09-11T14:08:36.057Z,1.00
2022-09-11T14:11:21.848Z,0.90
2022-09-11T14:13:50.423Z,1.20
2022-09-11T14:16:24.431Z,1.20
2022-09-11T14:19:03.761Z,0.80
2022-09-11T14:21:34.190Z,0.90
2022-09-11T14:24:01.872Z,1.02
2022-09-11T14:26:32.421Z,0.90
2022-09-11T14:29:03.572Z,1.00
2022-09-11T14:31:34.188Z,0.95
2022-09-11T14:34:28.376Z,1.50
2022-09-11T14:37:04.119Z,0.70
2022-09-11T14:39:56.211Z,0.95
2022-09-11T14:42:28.840Z,1.00
2022-09-11T14:44:56.095Z,1.00
2022-09-11T14:47:25.509Z,0.85
2022-09-11T14:49:54.683Z,1.00
2022-09-11T14:52:27.209Z,0.88
2022-09-11T14:54:54.599Z,1.10
2022-09-11T14:57:24.213Z,1.00
2022-09-11T14:59:52.434Z,0.90
2022-09-11T15:02:27.772Z,1.00
2022-09-11T15:04:57.112Z,0.85
2022-09-11T15:07:25.202Z,0.82
2022-09-11T15:09:53.860Z,0.90
2022-09-11T15:12:22.142Z,1.08
2022-09-11T15:14:57.266Z,0.80
2022-09-11T15:17:25.965Z,1.20
2022-09-11T15:19:53.470Z,3.60
2022-09-11T15:22:20.822Z,1.70
2022-09-11T15:24:48.815Z,2.97
2022-09-11T15:27:16.081Z,1.70
2022-09-11T15:29:43.079Z,1.17
2022-09-11T15:32:10.538Z,1.10
2022-09-11T15:34:39.315Z,1.35
2022-09-11T15:37:06.367Z,1.00
2022-09-11T15:39:34.045Z,1.00
2022-09-11T15:42:01.964Z,1.13
2022-09-11T15:44:29.810Z,0.95
2022-09-11T15:46:58.485Z,1.02
2022-09-11T15:49:28.199Z,1.33
2022-09-11T15:51:56.401Z,1.10
2022-09-11T15:54:24.024Z,1.00
2022-09-11T15:56:52.162Z,1.10
2022-09-11T15:59:19.359Z,1.05
2022-09-11T16:01:46.359Z,0.95
2022-09-11T16:04:18.732Z,1.20
2022-09-11T16:06:48.290Z,1.13
2022-09-11T16:09:21.828Z,0.93
2022-09-11T16:11:50.438Z,0.90
2022-09-11T16:14:24.619Z,0.80
2022-09-11T16:16:52.460Z,1.33
2022-09-11T16:19:21.557Z,1.00
2022-09-11T16:21:49.752Z,0.90
2022-09-11T16:24:17.142Z,0.80
2022-09-11T16:26:45.060Z,1.05
2022-09-11T16:29:14.802Z,0.93
2022-09-11T16:31:42.697Z,1.33
2022-09-11T16:34:10.890Z,0.95
2022-09-11T16:36:41.814Z,1.20
2022-09-11T16:39:14.355Z,1.02
2022-09-11T16:41:41.616Z,0.98
2022-09-11T16:44:12.046Z,1.20
2022-09-11T16:46:40.679Z,1.10
2022-09-11T16:49:08.811Z,1.33
2022-09-11T16:51:36.036Z,0.90
2022-09-11T16:54:04.305Z,0.93
2022-09-11T16:56:31.703Z,1.30
2022-09-11T16:58:58.843Z,1.20
2022-09-11T17:01:27.798Z,1.17
2022-09-11T17:03:57.251Z,1.20
2022-09-11T17:06:29.901Z,0.95
2022-09-11T17:08:59.735Z,1.10
2022-09-11T17:11:27.801Z,1.20
2022-09-11T17:13:54.877Z,1.45
2022-09-11T17:16:25.213Z,1.00
2022-09-11T17:18:56.635Z,1.35
2022-09-11T17:21:24.525Z,1.10
2022-09-11T17:23:53.655Z,1.10
2022-09-11T17:26:22.119Z,1.20
2022-09-11T17:28:50.208Z,1.00
2022-09-11T17:31:19.449Z,1.40
2022-09-11T17:33:48.120Z,1.20
2022-09-11T17:36:17.906Z,0.93
2022-09-11T17:38:46.472Z,1.33
2022-09-11T17:41:13.794Z,1.30
2022-09-11T17:43:41.024Z,2.45
2022-09-11T17:46:16.547Z,11.18
2022-09-11T17:48:44.289Z,1.63
2022-09-11T17:51:20.117Z,1.08
2022-09-11T17:53:49.276Z,1.55
2022-09-11T17:56:19.458Z,1.60
2022-09-11T17:58:54.332Z,1.45
2022-09-11T18:01:22.789Z,1.25
2022-09-11T18:03:52.599Z,1.52
2022-09-11T18:06:28.246Z,1.85
2022-09-11T18:09:01.811Z,1.95
2022-09-11T18:11:30.187Z,1.83
2022-09-11T18:13:58.703Z,1.40
2022-09-11T18:16:26.114Z,1.60
2022-09-11T18:18:54.310Z,2.25
2022-09-11T18:21:21.764Z,2.45
2022-09-11T18:23:49.838Z,1.73
2022-09-11T18:26:26.189Z,1.98
2022-09-11T18:29:04.778Z,2.00
2022-09-11T18:31:36.819Z,2.25
2022-09-11T18:34:03.959Z,1.90
2022-09-11T18:36:31.614Z,1.90
2022-09-11T18:39:01.803Z,1.95
2022-09-11T18:41:31.135Z,1.60
2022-09-11T18:44:00.147Z,2.20
2022-09-11T18:46:28.013Z,2.33
2022-09-11T18:48:56.092Z,1.90
2022-09-11T18:51:23.151Z,2.05
2022-09-11T18:53:53.876Z,2.03
2022-09-11T18:56:23.132Z,2.10
2022-09-11T18:58:52.195Z,2.33
2022-09-11T19:01:22.421Z,1.92
2022-09-11T19:03:51.783Z,2.47
2022-09-11T19:06:21.929Z,2.00
2022-09-11T19:08:49.612Z,2.05
2022-09-11T19:11:22.683Z,1.83
2022-09-11T19:13:51.379Z,2.47
2022-09-11T19:16:19.821Z,1.85
2022-09-11T19:18:47.369Z,2.40
2022-09-11T19:21:20.779Z,3.05
2022-09-11T19:23:50.033Z,2.63
2022-09-11T19:26:19.041Z,1.90
2022-09-11T19:28:46.512Z,2.75
2022-09-11T19:31:15.868Z,2.80
2022-09-11T19:33:46.674Z,3.15
2022-09-11T19:36:21.239Z,2.35
2022-09-11T19:38:49.782Z,2.17
2022-09-11T19:41:18.807Z,2.53
2022-09-11T19:43:46.188Z,3.13
2022-09-11T19:46:16.078Z,3.90
2022-09-11T19:48:44.323Z,4.30
2022-09-11T19:51:17.417Z,3.80
2022-09-11T19:53:44.953Z,4.07
2022-09-11T19:56:14.141Z,5.07
2022-09-11T19:58:41.384Z,3.70
2022-09-11T20:01:11.441Z,3.55
2022-09-11T20:03:40.170Z,3.53
2022-09-11T20:06:07.905Z,3.88
2022-09-11T20:08:35.788Z,4.30
2022-09-11T20:11:06.197Z,3.30
2022-09-11T20:13:34.897Z,3.35
2022-09-11T20:16:03.574Z,3.83
2022-09-11T20:21:16.311Z,5.28
2022-09-11T20:23:44.815Z,4.30
2022-09-11T20:26:17.501Z,4.38
2022-09-11T20:28:46.194Z,4.10
2022-09-11T20:31:18.338Z,4.38
2022-09-11T20:33:46.299Z,3.42
2022-09-11T20:36:13.959Z,3.58
2022-09-11T20:38:41.095Z,3.60
2022-09-11T20:41:11.104Z,3.70
2022-09-11T20:43:38.556Z,3.20
2022-09-11T20:46:06.158Z,3.60
2022-09-11T20:48:33.448Z,3.35
2022-09-11T20:51:05.109Z,3.58
2022-09-11T20:53:32.113Z,3.47
2022-09-11T20:56:03.641Z,4.35
2022-09-11T20:58:30.611Z,3.33
2022-09-11T21:00:58.234Z,4.20
2022-09-11T21:03:26.311Z,3.55
2022-09-11T21:05:55.424Z,3.45
2022-09-11T21:08:23.036Z,2.63
2022-09-11T21:10:50.111Z,3.15
2022-09-11T21:13:17.404Z,2.80
2022-09-11T21:15:46.597Z,2.72
2022-09-11T21:18:14.878Z,2.78
2022-09-11T21:20:41.916Z,2.45
2022-09-11T21:23:08.911Z,2.55
2022-09-11T21:25:40.267Z,2.45
2022-09-11T21:28:07.254Z,2.67
2022-09-11T21:30:37.188Z,1.92
2022-09-11T21:33:04.180Z,2.60
2022-09-11T21:35:31.154Z,2.33
2022-09-11T21:37:58.148Z,2.20
2022-09-11T21:40:25.361Z,2.65
2022-09-11T21:42:52.290Z,2.47
2022-09-11T21:45:19.812Z,2.47
2022-09-11T21:47:46.905Z,2.28
2022-09-11T21:50:13.844Z,2.15
2022-09-11T21:52:40.832Z,2.70
2022-09-11T21:55:08.068Z,2.40
2022-09-11T21:57:34.994Z,2.17
2022-09-11T22:00:02.315Z,2.20
2022-09-11T22:02:29.312Z,2.95
2022-09-11T22:04:56.412Z,2.60
2022-09-11T22:07:23.327Z,2.30
2022-09-11T22:09:51.521Z,2.38
2022-09-11T22:12:18.774Z,2.75
2022-09-11T22:14:48.757Z,3.17
2022-09-11T22:17:16.195Z,2.58
2022-09-11T22:19:45.780Z,3.28
2022-09-11T22:22:13.537Z,2.78
2022-09-11T22:24:40.608Z,2.17
2022-09-11T22:27:08.527Z,2.38
2022-09-11T22:29:37.025Z,2.17
2022-09-11T22:32:07.480Z,2.03
2022-09-11T22:34:37.620Z,2.10
2022-09-11T22:37:06.156Z,2.30
2022-09-11T22:39:33.085Z,2.30
2022-09-11T22:42:00.040Z,2.13
2022-09-11T22:44:27.131Z,2.30
2022-09-11T22:46:54.327Z,2.50
2022-09-11T22:49:21.703Z,2.30
2022-09-11T22:51:49.607Z,2.30
2022-09-11T22:54:16.812Z,1.92
2022-09-11T22:56:44.116Z,2.33
2022-09-11T22:59:11.211Z,1.92
2022-09-11T23:01:38.562Z,2.25
2022-09-11T23:04:05.779Z,2.58
2022-09-11T23:06:51.273Z,2.45
2022-09-11T23:09:18.321Z,2.20
2022-09-11T23:11:46.263Z,2.65
2022-09-11T23:14:14.772Z,2.00
2022-09-11T23:16:42.616Z,2.00
2022-09-11T23:19:13.901Z,2.55
2022-09-11T23:21:42.209Z,2.38
2022-09-11T23:24:13.276Z,2.65
2022-09-11T23:26:41.134Z,2.30
2022-09-11T23:29:08.067Z,2.35
2022-09-11T23:31:35.535Z,2.10
2022-09-11T23:34:06.784Z,2.05
2022-09-11T23:36:35.188Z,2.20
2022-09-11T23:39:02.788Z,2.85
2022-09-11T23:41:31.897Z,1.90
2022-09-11T23:43:59.676Z,1.75
2022-09-11T23:46:26.965Z,2.13
2022-09-11T23:48:54.042Z,2.33
2022-09-11T23:51:21.246Z,1.88
2022-09-11T23:53:51.542Z,2.15
2022-09-11T23:56:19.038Z,2.20
2022-09-11T23:58:46.613Z,2.10
